createdAt,value
2024-04-18T00:03:22.120Z,4.53
2024-04-18T00:08:27.509Z,5.63
2024-04-18T00:13:35.476Z,5.50
2024-04-18T00:18:40.850Z,5.37
2024-04-18T00:23:47.577Z,5.03
2024-04-18T00:28:55.542Z,4.37
2024-04-18T00:34:00.862Z,4.90
2024-04-18T00:39:06.304Z,4.57
2024-04-18T00:44:14.951Z,7.87
2024-04-18T00:49:20.739Z,6.93
2024-04-18T00:54:26.381Z,7.40
2024-04-18T00:59:34.372Z,9.90
2024-04-18T01:04:40.361Z,6.70
2024-04-18T01:09:45.825Z,5.23
2024-04-18T01:14:53.800Z,5.40
2024-04-18T01:19:59.148Z,5.80
2024-04-18T01:25:04.444Z,4.43
2024-04-18T01:30:13.297Z,5.97
2024-04-18T01:35:18.720Z,6.22
2024-04-18T01:40:24.064Z,7.27
2024-04-18T01:45:32.204Z,6.07
2024-04-18T01:50:37.636Z,6.33
2024-04-18T01:55:42.927Z,5.73
2024-04-18T02:00:51.009Z,5.20
2024-04-18T02:05:56.436Z,6.53
2024-04-18T02:11:01.923Z,5.63
2024-04-18T02:16:09.997Z,6.67
2024-04-18T02:21:15.339Z,5.47
2024-04-18T02:26:20.688Z,4.53
2024-04-18T02:31:28.745Z,4.53
2024-04-18T02:36:34.120Z,5.50
2024-04-18T02:41:39.617Z,5.10
2024-04-18T02:46:47.694Z,4.40
2024-04-18T02:51:53.024Z,5.57
2024-04-18T02:56:58.394Z,5.10
2024-04-18T03:02:06.816Z,6.10
2024-04-18T03:07:12.193Z,5.03
2024-04-18T03:12:19.024Z,5.67
2024-04-18T03:17:27.065Z,5.43
2024-04-18T03:22:35.728Z,4.37
2024-04-18T03:27:41.092Z,5.57
2024-04-18T03:32:49.166Z,4.67
2024-04-18T03:37:54.484Z,5.00
2024-04-18T03:42:59.786Z,5.07
2024-04-18T03:48:08.320Z,7.13
2024-04-18T03:53:13.613Z,7.33
2024-04-18T03:58:18.923Z,5.93
2024-04-18T04:03:27.385Z,5.53
2024-04-18T04:08:32.788Z,5.37
2024-04-18T04:13:38.130Z,5.37
2024-04-18T04:18:47.124Z,4.77
2024-04-18T04:23:52.513Z,5.23
2024-04-18T04:28:57.851Z,8.77
2024-04-18T04:34:06.829Z,4.87
2024-04-18T04:39:12.364Z,5.93
2024-04-18T04:44:17.756Z,5.63
2024-04-18T04:49:25.920Z,6.37
2024-04-18T04:54:31.316Z,8.07
2024-04-18T04:59:36.667Z,6.07
2024-04-18T05:04:44.968Z,7.00
2024-04-18T05:09:50.438Z,7.80
2024-04-18T05:14:55.830Z,7.57
2024-04-18T05:20:03.811Z,6.10
2024-04-18T05:25:11.862Z,5.30
2024-04-18T05:30:34.667Z,6.60
2024-04-18T05:35:42.662Z,5.90
2024-04-18T05:40:49.189Z,7.03
2024-04-18T05:45:54.929Z,9.13
2024-04-18T05:51:03.056Z,4.67
2024-04-18T05:56:08.655Z,4.43
2024-04-18T06:01:14.428Z,7.97
2024-04-18T06:06:22.491Z,7.53
2024-04-18T06:11:37.217Z,8.10
2024-04-18T06:16:42.675Z,7.53
2024-04-18T06:21:50.646Z,6.80
2024-04-18T06:26:55.960Z,6.60
2024-04-18T06:32:01.294Z,5.17
2024-04-18T06:37:10.293Z,13.50
2024-04-18T06:42:15.606Z,5.30
2024-04-18T06:47:20.933Z,7.53
2024-04-18T06:52:28.928Z,5.53
2024-04-18T06:57:34.373Z,6.53
2024-04-18T07:02:40.392Z,6.73
2024-04-18T07:07:48.380Z,5.60
2024-04-18T07:12:53.743Z,6.67
2024-04-18T07:17:59.220Z,7.17
2024-04-18T07:23:07.496Z,7.10
2024-04-18T07:28:12.816Z,6.83
2024-04-18T07:33:18.248Z,4.22
2024-04-18T07:38:26.550Z,6.90
2024-04-18T07:43:31.925Z,7.47
2024-04-18T07:48:37.325Z,6.57
2024-04-18T07:53:45.383Z,5.70
2024-04-18T07:58:51.231Z,7.22
2024-04-18T08:04:16.994Z,5.68
2024-04-18T08:09:28.216Z,5.53
2024-04-18T08:14:38.539Z,6.20
2024-04-18T08:19:46.455Z,4.88
2024-04-18T08:24:54.460Z,6.72
2024-04-18T08:29:59.829Z,7.43
2024-04-18T08:35:05.226Z,7.35
2024-04-18T08:40:14.353Z,6.35
2024-04-18T08:45:21.562Z,5.68
2024-04-18T08:50:27.989Z,5.90
2024-04-18T08:55:36.871Z,7.38
2024-04-18T09:00:44.279Z,5.82
2024-04-18T09:05:49.677Z,6.57
2024-04-18T09:10:57.701Z,5.60
2024-04-18T09:16:03.140Z,5.30
2024-04-18T09:21:11.795Z,6.75
2024-04-18T09:26:19.975Z,4.93
2024-04-18T09:31:34.592Z,9.88
2024-04-18T09:36:44.337Z,3.95
2024-04-18T09:41:54.883Z,4.07
2024-04-18T09:47:02.073Z,4.28
2024-04-18T09:52:09.290Z,5.15
2024-04-18T09:57:19.106Z,6.95
2024-04-18T10:02:26.257Z,4.47
2024-04-18T10:07:32.316Z,3.92
2024-04-18T10:12:40.310Z,3.97
2024-04-18T10:17:45.770Z,5.10
2024-04-18T10:22:59.571Z,5.03
2024-04-18T10:28:19.710Z,5.20
2024-04-18T10:33:32.463Z,3.47
2024-04-18T10:38:37.952Z,2.13
2024-04-18T10:43:46.648Z,2.83
2024-04-18T10:48:58.395Z,5.13
2024-04-18T10:54:03.945Z,1.95
2024-04-18T10:59:14.075Z,2.33
2024-04-18T11:04:20.295Z,3.70
2024-04-18T11:09:25.832Z,2.28
2024-04-18T11:14:33.864Z,0.93
2024-04-18T11:19:39.287Z,2.47
2024-04-18T11:24:45.092Z,2.85
2024-04-18T11:29:55.752Z,1.65
2024-04-18T11:35:07.884Z,3.53
2024-04-18T11:40:20.910Z,1.83
2024-04-18T11:45:28.918Z,3.58
2024-04-18T11:50:34.292Z,2.17
2024-04-18T11:55:39.888Z,1.90
2024-04-18T12:00:47.837Z,2.42
2024-04-18T12:05:53.421Z,2.67
2024-04-18T12:10:58.782Z,1.95
2024-04-18T12:16:07.375Z,2.42
2024-04-18T12:21:12.805Z,2.38
2024-04-18T12:26:18.327Z,3.00
2024-04-18T12:31:26.274Z,0.95
2024-04-18T12:36:31.798Z,1.58
2024-04-18T12:41:37.208Z,2.80
2024-04-18T12:46:45.650Z,3.47
2024-04-18T12:51:51.005Z,4.97
2024-04-18T12:56:56.509Z,1.63
2024-04-18T13:02:04.513Z,2.08
2024-04-18T13:07:09.922Z,2.05
2024-04-18T13:12:15.358Z,1.48
2024-04-18T13:17:23.486Z,1.85
2024-04-18T13:22:28.808Z,1.95
2024-04-18T13:27:34.493Z,1.13
2024-04-18T13:32:42.587Z,2.92
2024-04-18T13:37:48.248Z,2.90
2024-04-18T13:42:53.575Z,1.52
2024-04-18T13:48:02.403Z,2.75
2024-04-18T13:53:08.020Z,1.98
2024-04-18T13:58:13.389Z,2.92
2024-04-18T14:03:22.394Z,1.42
2024-04-18T14:08:27.802Z,1.00
2024-04-18T14:13:33.200Z,1.15
2024-04-18T14:18:53.221Z,2.03
2024-04-18T14:23:58.665Z,1.77
2024-04-18T14:29:03.994Z,1.52
2024-04-18T14:34:12.297Z,2.08
2024-04-18T14:39:17.668Z,1.60
2024-04-18T14:44:23.023Z,1.40
2024-04-18T14:49:34.863Z,4.15
2024-04-18T14:54:40.366Z,3.88
2024-04-18T14:59:45.719Z,1.55
2024-04-18T15:04:54.110Z,2.85
2024-04-18T15:09:59.488Z,2.15
2024-04-18T15:15:05.000Z,2.05
2024-04-18T15:20:13.292Z,3.38
2024-04-18T15:25:20.979Z,2.78
2024-04-18T15:30:26.520Z,1.70
2024-04-18T15:35:34.483Z,3.13
2024-04-18T15:40:41.517Z,1.48
2024-04-18T15:45:46.880Z,1.90
2024-04-18T15:50:54.789Z,1.45
2024-04-18T15:56:00.171Z,1.75
2024-04-18T16:01:06.017Z,2.85
2024-04-18T16:06:13.962Z,2.17
2024-04-18T16:11:19.331Z,2.55
2024-04-18T16:16:24.750Z,1.60
2024-04-18T16:21:34.202Z,2.90
2024-04-18T16:26:39.567Z,2.28
2024-04-18T16:31:44.943Z,4.57
2024-04-18T16:37:04.771Z,2.28
2024-04-18T16:42:17.378Z,2.80
2024-04-18T16:47:22.727Z,1.70
2024-04-18T16:52:30.667Z,3.17
2024-04-18T16:57:37.296Z,1.50
2024-04-18T17:02:43.223Z,2.92
2024-04-18T17:07:53.266Z,2.08
2024-04-18T17:12:58.596Z,3.92
2024-04-18T17:18:04.047Z,2.35
2024-04-18T17:23:12.297Z,4.35
2024-04-18T17:28:17.622Z,4.68
2024-04-18T17:33:23.121Z,3.15
2024-04-18T17:38:31.132Z,2.85
2024-04-18T17:43:36.467Z,3.97
2024-04-18T17:48:42.036Z,4.38
2024-04-18T17:53:50.202Z,5.65
2024-04-18T17:58:55.531Z,4.03
2024-04-18T18:04:01.255Z,3.90
2024-04-18T18:09:09.923Z,5.68
2024-04-18T18:14:15.281Z,3.00
2024-04-18T18:19:20.846Z,3.83
2024-04-18T18:24:29.235Z,3.55
2024-04-18T18:29:34.920Z,5.20
2024-04-18T18:34:40.394Z,3.30
2024-04-18T18:39:49.134Z,5.75
2024-04-18T18:44:54.492Z,3.25
2024-04-18T18:49:59.826Z,4.68
2024-04-18T18:55:08.588Z,2.95
2024-04-18T19:00:15.275Z,2.88
2024-04-18T19:05:20.735Z,5.88
2024-04-18T19:10:29.304Z,3.83
2024-04-18T19:15:34.722Z,4.28
2024-04-18T19:20:40.238Z,5.43
2024-04-18T19:25:48.207Z,3.38
2024-04-18T19:30:55.658Z,2.42
2024-04-18T19:36:01.370Z,2.35
2024-04-18T19:41:09.911Z,4.13
2024-04-18T19:46:15.508Z,2.92
2024-04-18T19:51:20.995Z,4.35
2024-04-18T19:56:29.065Z,2.05
2024-04-18T20:01:35.608Z,3.50
2024-04-18T20:06:42.706Z,2.53
2024-04-18T20:11:50.779Z,3.85
2024-04-18T20:16:56.132Z,5.30
2024-04-18T20:22:01.445Z,3.10
2024-04-18T20:27:09.626Z,4.60
2024-04-18T20:32:15.059Z,5.43
2024-04-18T20:37:20.872Z,4.97
2024-04-18T20:42:29.332Z,2.73
2024-04-18T20:47:35.132Z,2.78
2024-04-18T20:52:40.990Z,6.13
2024-04-18T20:57:49.097Z,3.33
2024-04-18T21:02:54.433Z,3.93
2024-04-18T21:07:59.765Z,5.10
2024-04-18T21:13:08.608Z,4.20
2024-04-18T21:18:15.438Z,2.83
2024-04-18T21:23:20.814Z,5.97
2024-04-18T21:28:28.796Z,5.20
2024-04-18T21:33:34.357Z,4.70
2024-04-18T21:38:50.661Z,3.63
2024-04-18T21:44:06.561Z,4.33
2024-04-18T21:49:11.892Z,8.05
2024-04-18T21:54:17.198Z,7.20
2024-04-18T21:59:25.131Z,6.17
2024-04-18T22:04:30.742Z,4.97
2024-04-18T22:09:36.977Z,3.60
2024-04-18T22:14:45.090Z,9.43
2024-04-18T22:19:50.581Z,4.05
2024-04-18T22:24:55.951Z,4.40
2024-04-18T22:30:03.887Z,3.63
2024-04-18T22:35:09.858Z,4.57
2024-04-18T22:40:15.300Z,3.97
2024-04-18T22:45:23.319Z,3.53
2024-04-18T22:50:28.650Z,6.53
2024-04-18T22:55:33.926Z,5.90
2024-04-18T23:00:43.369Z,5.03
2024-04-18T23:05:50.348Z,3.28
2024-04-18T23:10:55.724Z,3.40
2024-04-18T23:16:03.724Z,4.10
2024-04-18T23:21:09.065Z,3.87
2024-04-18T23:26:14.483Z,3.40
2024-04-18T23:31:22.399Z,5.43
2024-04-18T23:36:27.756Z,5.60
2024-04-18T23:41:33.091Z,7.77
2024-04-18T23:46:41.015Z,7.23
2024-04-18T23:51:46.400Z,6.27
2024-04-18T23:56:51.744Z,3.93
